Mahone Bay, Canada
Current Conditions -  °F | °C
As of 11:00 AM on Monday 24 Nov 2014 (Local Time) from CYZX Reporting Station
Overcast Overcast  
Wind Chill: 42°   Ceiling: 15000
Heat Index: 48°   Visibility: 15mi
Dew Point: 43°   Wind: 17mph
Humidity: 82%   Direction: 170°S
Pressure: 30.15"   Gusts: 23mph
Location:  44.43°N, 64.37°W
Report Text: CYZX 241500Z 17015G20KT 15SM FEW014 OVC150 09/06 A3015 RMK SC2AC6 WNDY HILL 17011G26KT SLP210
Loading
Personal Weather Stations






























Interactive Weather Map New forecast layout! Learn more

10-Day Weather Forecast

Advertisements
Track Severe Weather on mobile